Time;durP1;ratioP1;P1;durP2;ratioP2;P2;SDS_P1;SDS_P2;PMS_P1;PMS_P2;Temp;Humidity;BMP_temperature;BMP_pressure;BME280_temperature;BME280_humidity;BME280_pressure;Samples;Min_cycle;Max_cycle;Signal;HPM_P1;HPM_P2
2022/05/15 00:00:51;;;;;;;4.07;3.67;;;12.90;99.90;;;;;;4915549;29;20189;-92
2022/05/15 00:03:20;;;;;;;4.30;4.00;;;13.10;99.90;;;;;;4899869;29;20448;-92
2022/05/15 00:05:56;;;;;;;4.00;3.50;;;13.10;99.90;;;;;;4901281;28;20262;-92
2022/05/15 00:08:29;;;;;;;4.10;3.80;;;12.90;99.90;;;;;;4914996;29;20439;-93
2022/05/15 00:11:02;;;;;;;4.20;3.80;;;13.00;99.90;;;;;;4875338;29;20444;-93
2022/05/15 00:13:32;;;;;;;4.10;3.70;;;12.90;99.90;;;;;;4928104;29;20459;-92
2022/05/15 00:16:05;;;;;;;4.30;3.90;;;12.80;99.90;;;;;;4917818;29;20493;-92
2022/05/15 00:18:50;;;;;;;4.70;3.73;;;12.80;99.90;;;;;;4921861;29;20455;-93
2022/05/15 00:21:20;;;;;;;4.90;4.27;;;12.90;99.90;;;;;;4910320;29;20535;-93
2022/05/15 00:23:48;;;;;;;4.17;3.77;;;12.90;99.90;;;;;;4897906;29;20545;-93
2022/05/15 00:26:14;;;;;;;4.63;4.23;;;12.60;99.90;;;;;;4876660;29;20459;-92
2022/05/15 00:28:41;;;;;;;4.20;3.80;;;12.50;99.90;;;;;;4911041;29;20444;-93
2022/05/15 00:31:08;;;;;;;4.20;3.53;;;12.90;99.90;;;;;;4925340;29;20183;-91
2022/05/15 00:33:34;;;;;;;4.97;3.70;;;12.30;99.90;;;;;;4927302;29;20444;-93
2022/05/15 00:36:05;;;;;;;4.60;4.30;;;12.80;99.90;;;;;;4912871;29;20463;-91
2022/05/15 00:38:48;;;;;;;5.20;4.80;;;12.70;99.90;;;;;;4912814;29;20262;-92
2022/05/15 00:41:24;;;;;;;4.70;4.23;;;12.60;99.90;;;;;;4919851;29;21117;-93
2022/05/15 00:43:57;;;;;;;4.50;4.10;;;12.80;99.90;;;;;;4909126;29;21351;-92
2022/05/15 00:46:28;;;;;;;5.43;4.00;;;12.60;99.90;;;;;;4891504;29;20535;-92
2022/05/15 00:48:58;;;;;;;4.10;3.80;;;12.60;99.90;;;;;;4892720;29;20458;-92
2022/05/15 00:51:26;;;;;;;4.30;3.97;;;12.60;99.90;;;;;;4913451;29;20452;-92
2022/05/15 00:54:21;;;;;;;6.10;4.10;;;12.60;99.90;;;;;;4926703;29;20444;-92
2022/05/15 00:56:56;;;;;;;4.80;4.00;;;12.50;99.90;;;;;;4929555;29;20494;-92
2022/05/15 00:59:40;;;;;;;6.33;3.83;;;12.40;99.90;;;;;;4925765;29;20439;-92
2022/05/15 01:02:11;;;;;;;4.07;3.77;;;12.30;99.90;;;;;;4925710;29;20462;-92
2022/05/15 01:04:40;;;;;;;4.23;3.83;;;12.70;99.90;;;;;;4904371;29;20470;-91
2022/05/15 01:07:07;;;;;;;4.10;3.80;;;12.30;99.90;;;;;;4912424;29;20459;-91
2022/05/15 01:10:05;;;;;;;4.67;4.27;;;12.30;99.90;;;;;;4911187;29;20522;-91
2022/05/15 01:13:06;;;;;;;4.20;3.80;;;12.20;99.90;;;;;;4909083;29;20459;-92
2022/05/15 01:15:56;;;;;;;6.40;3.90;;;12.30;99.90;;;;;;4910677;29;20462;-92
2022/05/15 01:18:26;;;;;;;4.20;3.90;;;12.00;99.90;;;;;;4908658;29;21210;-92
2022/05/15 01:21:00;;;;;;;4.90;4.40;;;12.10;99.90;;;;;;4903708;29;20806;-92
2022/05/15 01:23:40;;;;;;;;;;;;;;;;;;;;;
2022/05/15 01:26:06;;;;;;;4.60;4.20;;;12.20;99.90;;;;;;4924619;29;20964;-93
2022/05/15 01:28:47;;;;;;;;;;;;;;;;;;;;;
2022/05/15 01:31:28;;;;;;;;;;;;;;;;;;;;;
2022/05/15 01:34:00;;;;;;;5.73;4.83;;;11.90;99.90;;;;;;4888723;29;20451;-92
2022/05/15 01:36:28;;;;;;;5.00;4.60;;;11.90;99.90;;;;;;4894300;29;20471;-91
2022/05/15 01:39:07;;;;;;;4.97;3.83;;;11.90;99.90;;;;;;4909230;29;20451;-92
2022/05/15 01:41:35;;;;;;;4.20;3.80;;;11.90;99.90;;;;;;4915377;29;20451;-92
2022/05/15 01:44:10;;;;;;;4.30;4.00;;;12.20;99.90;;;;;;4906955;29;20481;-93
2022/05/15 01:46:41;;;;;;;4.37;3.97;;;11.90;99.90;;;;;;4905858;29;20898;-91
2022/05/15 01:49:11;;;;;;;5.40;4.90;;;12.00;99.90;;;;;;4907625;29;20462;-92
2022/05/15 01:51:52;;;;;;;4.30;3.90;;;12.10;99.90;;;;;;4911290;29;20459;-92
2022/05/15 01:54:21;;;;;;;4.53;4.13;;;12.10;99.90;;;;;;4900062;29;20454;-93
2022/05/15 01:56:55;;;;;;;4.73;4.20;;;11.80;99.90;;;;;;4883560;29;20487;-92
2022/05/15 01:59:26;;;;;;;5.07;4.67;;;11.80;99.90;;;;;;4905722;29;20555;-92
2022/05/15 02:01:52;;;;;;;5.10;4.70;;;11.80;99.90;;;;;;4919343;29;20459;-92
2022/05/15 02:04:18;;;;;;;4.67;4.27;;;11.70;99.90;;;;;;4912171;29;20455;-92
2022/05/15 02:06:54;;;;;;;5.03;4.53;;;11.50;99.90;;;;;;4888294;29;20258;-91
2022/05/15 02:09:28;;;;;;;9.83;5.00;;;12.20;99.90;;;;;;4905362;29;20220;-90
2022/05/15 02:11:56;;;;;;;5.07;4.57;;;11.60;99.90;;;;;;4925226;29;20462;-90
2022/05/15 02:14:25;;;;;;;5.07;4.43;;;11.60;99.90;;;;;;4923947;29;20479;-91
2022/05/15 02:16:59;;;;;;;7.37;4.33;;;12.00;99.90;;;;;;4925681;29;20493;-91
2022/05/15 02:19:25;;;;;;;5.57;4.53;;;11.90;99.90;;;;;;4905648;29;20463;-92
2022/05/15 02:21:51;;;;;;;5.13;4.73;;;12.10;99.90;;;;;;4893277;29;20210;-91
2022/05/15 02:24:16;;;;;;;4.70;4.30;;;11.30;99.90;;;;;;4904167;29;20191;-91
2022/05/15 02:26:42;;;;;;;4.53;4.13;;;12.10;99.90;;;;;;4905820;29;20196;-92
2022/05/15 02:29:22;;;;;;;5.90;4.63;;;12.00;99.90;;;;;;4927517;29;20650;-92
2022/05/15 02:31:47;;;;;;;5.30;4.87;;;11.50;99.90;;;;;;4900859;29;20183;-92
2022/05/15 02:34:22;;;;;;;6.93;4.77;;;11.70;99.90;;;;;;4922378;29;20452;-92
2022/05/15 02:36:56;;;;;;;5.70;5.20;;;11.40;99.90;;;;;;4928907;29;20215;-91
2022/05/15 02:39:34;;;;;;;5.40;5.00;;;11.60;99.90;;;;;;4904092;29;20574;-91
2022/05/15 02:42:01;;;;;;;6.43;4.93;;;11.60;99.90;;;;;;4903885;29;20454;-92
2022/05/15 02:44:30;;;;;;;8.37;5.60;;;12.20;99.90;;;;;;4910413;29;20452;-92
2022/05/15 02:46:57;;;;;;;4.87;4.50;;;11.60;99.90;;;;;;4886806;29;20451;-91
2022/05/15 02:52:12;;;;;;;4.67;4.27;;;11.20;99.90;;;;;;4905554;29;20533;-91
2022/05/15 02:54:45;;;;;;;5.10;4.70;;;11.40;99.90;;;;;;4902993;29;20542;-91
2022/05/15 02:57:17;;;;;;;4.77;4.10;;;11.60;99.90;;;;;;4911314;29;20483;-92
2022/05/15 02:59:55;;;;;;;5.20;4.17;;;11.10;99.90;;;;;;4910162;29;20452;-91
2022/05/15 03:02:26;;;;;;;6.30;3.90;;;11.20;99.90;;;;;;4903582;29;20575;-90
2022/05/15 03:05:16;;;;;;;5.30;4.90;;;11.00;99.90;;;;;;4906859;29;20917;-91
2022/05/15 03:07:50;;;;;;;5.23;4.87;;;11.00;99.90;;;;;;4925670;29;20830;-91
2022/05/15 03:10:39;;;;;;;5.60;4.40;;;11.20;99.90;;;;;;4905806;29;20607;-91
2022/05/15 03:13:10;;;;;;;5.63;4.60;;;10.90;99.90;;;;;;4888738;29;22245;-91
2022/05/15 03:15:42;;;;;;;4.70;4.20;;;11.00;99.90;;;;;;4928187;29;20434;-92
2022/05/15 03:18:20;;;;;;;5.10;4.70;;;11.00;99.90;;;;;;4916995;29;20460;-91
2022/05/15 03:21:13;;;;;;;6.10;4.20;;;10.90;99.90;;;;;;4907284;28;20443;-92
2022/05/15 03:23:45;;;;;;;5.33;4.93;;;10.80;99.90;;;;;;4903100;29;20546;-92
2022/05/15 03:26:20;;;;;;;5.53;4.70;;;10.90;99.90;;;;;;4907783;29;20443;-90
2022/05/15 03:28:48;;;;;;;4.47;4.13;;;11.30;99.90;;;;;;4902899;29;20462;-91
2022/05/15 03:31:22;;;;;;;4.83;4.43;;;11.00;99.90;;;;;;4916398;29;20183;-90
2022/05/15 03:33:48;;;;;;;5.47;5.07;;;11.80;99.90;;;;;;4885163;29;20455;-92
2022/05/15 03:36:21;;;;;;;5.80;4.77;;;11.50;99.90;;;;;;4918715;29;20476;-91
2022/05/15 03:39:20;;;;;;;4.97;4.57;;;10.80;99.90;;;;;;4916262;29;20188;-91
2022/05/15 03:41:49;;;;;;;5.53;5.03;;;11.10;99.90;;;;;;4905620;29;20452;-91
2022/05/15 03:44:15;;;;;;;5.27;4.77;;;11.70;99.90;;;;;;4885617;29;20458;-91
2022/05/15 03:46:42;;;;;;;5.17;4.70;;;11.40;99.90;;;;;;4916421;29;20494;-91
2022/05/15 03:49:08;;;;;;;5.37;4.90;;;11.80;99.90;;;;;;4904749;29;20451;-90
2022/05/15 03:51:40;;;;;;;5.13;4.63;;;11.00;99.90;;;;;;4900306;29;20431;-93
2022/05/15 03:54:09;;;;;;;5.40;4.30;;;11.30;99.90;;;;;;4914742;29;20795;-90
2022/05/15 03:56:50;;;;;;;5.40;4.90;;;12.00;99.90;;;;;;4901692;29;20695;-90
2022/05/15 03:59:43;;;;;;;4.90;4.50;;;11.60;99.90;;;;;;4910831;29;20462;-90
2022/05/15 04:02:09;;;;;;;4.83;4.33;;;11.20;99.90;;;;;;4899582;29;20507;-90
2022/05/15 04:04:35;;;;;;;5.17;4.40;;;11.20;99.90;;;;;;4902509;29;22436;-89
2022/05/15 04:07:01;;;;;;;4.30;4.00;;;11.40;99.90;;;;;;4883851;29;20444;-89
2022/05/15 04:09:29;;;;;;;4.50;4.10;;;11.10;99.90;;;;;;4882385;29;20775;-90
2022/05/15 04:11:57;;;;;;;4.80;4.30;;;11.20;99.90;;;;;;4895948;29;20440;-88
2022/05/15 04:14:24;;;;;;;4.40;4.00;;;11.00;99.90;;;;;;4887808;29;20533;-89
2022/05/15 04:16:50;;;;;;;6.23;4.77;;;10.90;99.90;;;;;;4912987;29;20476;-90
2022/05/15 04:19:25;;;;;;;4.37;4.07;;;11.20;99.90;;;;;;4898574;29;20522;-90
2022/05/15 04:21:51;;;;;;;5.93;4.70;;;11.00;99.90;;;;;;4902526;29;20180;-90
2022/05/15 04:24:18;;;;;;;5.63;5.10;;;10.70;99.90;;;;;;4903541;29;20459;-90
2022/05/15 04:26:47;;;;;;;5.07;4.57;;;10.70;99.90;;;;;;4904084;29;20750;-89
2022/05/15 04:29:13;;;;;;;5.93;5.43;;;10.90;99.90;;;;;;4906966;29;20450;-89
2022/05/15 04:31:39;;;;;;;5.50;5.00;;;11.10;99.90;;;;;;4911196;29;20444;-90
2022/05/15 04:34:05;;;;;;;5.10;4.70;;;10.70;99.90;;;;;;4890094;29;21259;-90
2022/05/15 04:36:32;;;;;;;4.63;4.23;;;11.40;99.90;;;;;;4916974;29;20267;-90
2022/05/15 04:39:04;;;;;;;4.77;4.40;;;11.10;99.90;;;;;;4897198;29;20483;-90
2022/05/15 04:41:30;;;;;;;5.70;4.97;;;11.10;99.90;;;;;;4888625;29;20446;-90
2022/05/15 04:43:56;;;;;;;5.30;4.80;;;10.90;99.90;;;;;;4886558;29;20831;-91
2022/05/15 04:46:25;;;;;;;5.57;5.10;;;11.40;99.90;;;;;;4886819;29;20191;-91
2022/05/15 04:48:57;;;;;;;5.63;4.73;;;10.90;99.90;;;;;;4894389;29;20448;-90
2022/05/15 04:51:23;;;;;;;4.57;4.20;;;11.00;99.90;;;;;;4903925;29;21061;-91
2022/05/15 04:53:48;;;;;;;5.87;5.37;;;11.40;99.90;;;;;;4910637;29;20865;-90
2022/05/15 04:56:16;;;;;;;5.77;5.20;;;11.40;99.90;;;;;;4906501;29;20470;-90
2022/05/15 04:58:48;;;;;;;6.03;5.43;;;11.50;99.90;;;;;;4907166;29;20188;-90
2022/05/15 05:01:18;;;;;;;5.80;5.30;;;11.70;99.90;;;;;;4908573;29;20534;-91
2022/05/15 05:03:43;;;;;;;6.27;5.73;;;12.10;99.90;;;;;;4894221;29;20458;-90
2022/05/15 05:06:12;;;;;;;5.60;5.13;;;11.90;99.90;;;;;;4908666;28;20585;-89
2022/05/15 05:08:40;;;;;;;5.93;5.00;;;12.30;99.90;;;;;;4892881;29;20195;-89
2022/05/15 05:11:06;;;;;;;6.70;5.83;;;12.40;99.90;;;;;;4890200;29;20452;-89
2022/05/15 05:13:42;;;;;;;5.60;5.10;;;12.40;99.90;;;;;;4908503;29;20439;-89
2022/05/15 05:16:07;;;;;;;6.37;5.67;;;12.50;99.90;;;;;;4896130;29;20501;-89
2022/05/15 05:18:33;;;;;;;5.80;5.30;;;12.50;99.90;;;;;;4909973;29;20825;-89
2022/05/15 05:21:01;;;;;;;5.70;5.20;;;12.60;99.90;;;;;;4902316;29;20192;-89
2022/05/15 05:23:27;;;;;;;6.10;5.20;;;12.60;99.90;;;;;;4907412;29;20284;-89
2022/05/15 05:25:52;;;;;;;5.80;5.40;;;12.80;99.90;;;;;;4893180;29;20456;-88
2022/05/15 05:28:18;;;;;;;6.10;5.60;;;12.40;99.90;;;;;;4907516;29;20202;-90
2022/05/15 05:30:44;;;;;;;5.40;5.00;;;12.40;99.90;;;;;;4917602;29;20279;-89
2022/05/15 05:33:10;;;;;;;5.80;5.30;;;12.60;99.90;;;;;;4925819;29;20720;-89
2022/05/15 05:35:37;;;;;;;5.37;4.60;;;12.40;99.90;;;;;;4912090;29;20532;-90
2022/05/15 05:38:03;;;;;;;5.00;4.70;;;12.30;99.90;;;;;;4899628;29;20242;-88
2022/05/15 05:40:32;;;;;;;5.53;5.10;;;12.30;99.90;;;;;;4895225;29;20444;-90
2022/05/15 05:42:58;;;;;;;5.30;4.80;;;12.30;99.90;;;;;;4917650;29;20576;-90
2022/05/15 05:45:23;;;;;;;5.57;5.07;;;12.30;99.90;;;;;;4930827;29;20474;-89
2022/05/15 05:47:52;;;;;;;5.93;4.50;;;12.50;99.90;;;;;;4928652;29;20198;-89
2022/05/15 05:50:23;;;;;;;5.50;5.00;;;12.60;99.90;;;;;;4921071;29;20615;-88
2022/05/15 05:52:58;;;;;;;5.30;4.90;;;13.10;99.90;;;;;;4926843;29;20483;-89
2022/05/15 05:55:26;;;;;;;5.80;5.30;;;13.10;99.90;;;;;;4908845;29;20443;-90
2022/05/15 05:57:52;;;;;;;6.67;6.07;;;13.30;99.90;;;;;;4914386;29;20566;-89
2022/05/15 06:00:28;;;;;;;6.80;6.23;;;13.40;99.90;;;;;;4918980;29;20534;-90
2022/05/15 06:04:39;;;;;;;6.63;5.60;;;13.60;99.90;;;;;;4927818;29;20530;-90
2022/05/15 06:05:39;;;;;;;5.73;5.23;;;13.50;99.90;;;;;;4919574;29;20459;-89
2022/05/15 06:08:05;;;;;;;7.07;6.33;;;14.20;99.90;;;;;;4911029;29;20440;-89
2022/05/15 06:10:31;;;;;;;6.30;5.80;;;13.90;99.90;;;;;;4921834;29;20215;-89
2022/05/15 06:12:56;;;;;;;6.50;5.90;;;14.10;99.90;;;;;;4904297;29;20218;-90
2022/05/15 06:15:22;;;;;;;6.40;5.70;;;14.10;99.90;;;;;;4907929;29;20183;-90
2022/05/15 06:17:48;;;;;;;6.87;6.27;;;14.10;99.90;;;;;;4912241;29;20432;-91
2022/05/15 06:20:13;;;;;;;7.10;6.43;;;14.30;99.90;;;;;;4918554;29;20180;-90
2022/05/15 06:22:41;;;;;;;7.40;6.13;;;14.60;99.90;;;;;;4917996;29;20283;-90
2022/05/15 06:25:11;;;;;;;8.33;7.00;;;14.50;99.90;;;;;;4894227;29;20378;-90
2022/05/15 06:27:40;;;;;;;8.30;7.37;;;14.60;99.90;;;;;;4908883;29;20455;-89
2022/05/15 06:30:07;;;;;;;8.33;6.80;;;14.60;99.90;;;;;;4906512;29;20507;-90
2022/05/15 06:32:32;;;;;;;7.03;6.27;;;14.40;99.90;;;;;;4915230;29;20455;-89
2022/05/15 06:34:58;;;;;;;7.90;6.50;;;14.40;99.90;;;;;;4886045;29;20443;-90
2022/05/15 06:37:24;;;;;;;6.73;6.13;;;14.50;99.90;;;;;;4915396;29;20250;-90
2022/05/15 06:39:50;;;;;;;6.20;5.60;;;14.40;99.90;;;;;;4917917;29;20471;-89
2022/05/15 06:42:16;;;;;;;6.50;5.90;;;14.30;99.90;;;;;;4888707;29;20887;-89
2022/05/15 06:44:42;;;;;;;7.50;5.90;;;14.70;99.90;;;;;;4898155;29;20472;-89
2022/05/15 06:47:08;;;;;;;6.63;6.07;;;15.00;99.90;;;;;;4905198;29;20969;-85
2022/05/15 06:49:34;;;;;;;7.27;5.80;;;15.20;99.90;;;;;;4892397;29;20455;-86
2022/05/15 06:51:59;;;;;;;7.87;6.30;;;15.40;99.90;;;;;;4871990;29;20641;-87
2022/05/15 06:54:25;;;;;;;6.07;5.47;;;15.50;99.90;;;;;;4902647;29;20470;-87
2022/05/15 06:59:35;;;;;;;5.97;5.47;;;16.10;99.90;;;;;;4898986;29;20502;-85
2022/05/15 07:02:02;;;;;;;6.63;5.77;;;16.70;99.90;;;;;;4883130;29;22098;-85
2022/05/15 07:04:27;;;;;;;5.60;5.10;;;16.40;99.90;;;;;;4893881;29;20459;-86
2022/05/15 07:06:53;;;;;;;5.50;5.07;;;16.50;99.90;;;;;;4910619;29;20951;-86
2022/05/15 07:09:18;;;;;;;7.03;6.40;;;16.70;99.90;;;;;;4903209;29;20199;-85
2022/05/15 07:11:44;;;;;;;5.97;5.37;;;17.00;99.90;;;;;;4897040;29;20222;-85
2022/05/15 07:14:14;;;;;;;6.78;6.18;;;16.60;99.90;;;;;;4906163;29;20446;-88
2022/05/15 07:16:45;;;;;;;6.30;4.60;;;16.80;99.90;;;;;;4906180;29;20244;-88
2022/05/15 07:19:10;;;;;;;4.60;4.17;;;17.00;99.90;;;;;;4898717;29;20459;-90
2022/05/15 07:21:36;;;;;;;4.77;4.47;;;17.20;99.90;;;;;;4885789;29;22160;-87
2022/05/15 07:24:02;;;;;;;4.03;3.63;;;17.60;99.90;;;;;;4928636;29;20200;-87
2022/05/15 07:26:27;;;;;;;10.33;9.33;;;18.00;99.90;;;;;;4890309;29;20658;-88
2022/05/15 07:28:53;;;;;;;5.90;3.70;;;18.10;99.90;;;;;;4913288;29;20808;-87
2022/05/15 07:31:21;;;;;;;7.47;4.60;;;18.10;99.90;;;;;;4909057;29;20191;-88
2022/05/15 07:33:47;;;;;;;4.20;3.80;;;18.10;99.90;;;;;;4907254;29;20487;-88
2022/05/15 07:36:13;;;;;;;3.80;3.50;;;18.10;99.90;;;;;;4903680;29;20926;-86
2022/05/15 07:38:42;;;;;;;3.63;3.37;;;18.20;99.90;;;;;;4896358;29;20352;-90
2022/05/15 07:41:14;;;;;;;5.13;3.97;;;18.20;99.90;;;;;;4894091;29;20442;-86
2022/05/15 07:43:45;;;;;;;8.20;3.80;;;18.50;99.90;;;;;;4887103;29;20487;-89
2022/05/15 07:46:16;;;;;;;4.10;3.80;;;18.80;99.90;;;;;;4934177;29;20438;-88
2022/05/15 07:48:42;;;;;;;5.17;4.67;;;19.20;99.90;;;;;;4923877;29;20481;-88
2022/05/15 07:51:20;;;;;;;4.20;3.63;;;19.20;99.90;;;;;;4903432;29;21011;-88
2022/05/15 07:54:06;;;;;;;4.60;3.40;;;19.20;99.90;;;;;;4911921;29;20191;-89
2022/05/15 07:56:53;;;;;;;4.93;3.10;;;19.20;99.40;;;;;;4919244;29;22900;-87
2022/05/15 08:00:07;;;;;;;5.13;3.90;;;19.30;99.90;;;;;;4892937;29;21003;-91
2022/05/15 08:02:46;;;;;;;4.47;3.90;;;19.40;99.10;;;;;;4902109;29;20451;-92
2022/05/15 08:08:09;;;;;;;4.90;3.17;;;19.60;99.90;;;;;;4913064;29;20499;-88
2022/05/15 08:11:12;;;;;;;5.07;4.60;;;19.80;99.80;;;;;;4917230;29;20455;-86
2022/05/15 08:13:44;;;;;;;4.83;4.00;;;19.90;99.40;;;;;;4902982;29;20953;-88
2022/05/15 08:16:11;;;;;;;3.77;3.13;;;19.90;99.90;;;;;;4921701;29;20454;-86
2022/05/15 08:25:06;;;;;;;7.83;6.83;;;20.20;99.50;;;;;;4919160;29;20868;-86
2022/05/15 08:27:33;;;;;;;3.80;3.00;;;20.60;99.50;;;;;;4919921;29;20475;-84
2022/05/15 08:29:58;;;;;;;2.80;2.60;;;20.50;98.80;;;;;;4918168;29;20570;-84
2022/05/15 08:32:38;;;;;;;4.60;2.80;;;20.50;99.20;;;;;;4924519;29;20220;-86
2022/05/15 08:35:08;;;;;;;3.53;2.97;;;20.70;98.40;;;;;;4924641;29;20198;-87
2022/05/15 08:37:38;;;;;;;3.37;2.67;;;20.90;98.30;;;;;;4895037;29;20529;-91
2022/05/15 08:40:25;;;;;;;3.20;2.90;;;21.10;97.20;;;;;;4920078;29;20498;-91
2022/05/15 08:43:20;;;;;;;2.83;2.63;;;21.20;97.30;;;;;;4905823;29;20462;-91
2022/05/15 08:45:59;;;;;;;3.10;2.87;;;21.50;96.50;;;;;;4898483;29;20534;-87
2022/05/15 08:48:28;;;;;;;3.00;2.70;;;22.00;97.00;;;;;;4901455;29;20444;-94
2022/05/15 08:50:57;;;;;;;5.03;2.90;;;21.60;96.50;;;;;;4917144;29;20447;-96
2022/05/15 08:53:31;;;;;;;3.27;2.80;;;21.70;97.60;;;;;;4917593;29;20462;-92
2022/05/15 08:55:59;;;;;;;3.40;2.50;;;21.80;96.80;;;;;;4903390;29;21511;-94
2022/05/15 08:58:56;;;;;;;3.60;2.87;;;22.00;95.90;;;;;;4896913;29;20509;-88
2022/05/15 09:01:26;;;;;;;3.87;3.03;;;22.30;95.50;;;;;;4873263;29;20447;-91
2022/05/15 09:03:56;;;;;;;4.37;2.83;;;22.10;94.30;;;;;;4908578;29;21204;-90
2022/05/15 09:06:56;;;;;;;3.03;2.67;;;22.30;95.80;;;;;;4899418;29;20439;-84
2022/05/15 09:09:57;;;;;;;3.03;2.63;;;22.20;95.90;;;;;;4903090;29;20460;-88
2022/05/15 09:12:26;;;;;;;4.60;2.70;;;22.30;96.10;;;;;;4902316;29;20922;-87
2022/05/15 09:15:21;;;;;;;7.20;3.57;;;22.50;94.50;;;;;;4911052;29;20582;-87
2022/05/15 09:17:58;;;;;;;4.70;2.90;;;22.80;95.40;;;;;;4902702;29;21069;-87
2022/05/15 09:20:24;;;;;;;2.70;2.40;;;22.60;93.90;;;;;;4906039;29;20762;-87
2022/05/15 09:23:13;;;;;;;2.60;2.40;;;22.80;95.70;;;;;;4905405;29;20447;-86
2022/05/15 09:25:39;;;;;;;5.03;2.83;;;23.00;95.30;;;;;;4885106;29;20188;-87
2022/05/15 09:28:19;;;;;;;4.17;2.73;;;23.00;94.40;;;;;;4905910;29;20440;-86
2022/05/15 09:30:50;;;;;;;2.67;2.47;;;23.00;93.80;;;;;;4904869;29;20267;-87
2022/05/15 09:33:50;;;;;;;3.33;2.70;;;23.00;94.20;;;;;;4886963;29;21097;-87
2022/05/15 09:38:26;;;;;;;2.70;2.50;;;23.10;94.30;;;;;;4891961;29;20480;-91
2022/05/15 09:40:09;;;;;;;2.40;2.20;;;23.20;94.40;;;;;;4922387;29;20539;-86
2022/05/15 09:45:46;;;;;;;3.50;2.53;;;23.70;93.50;;;;;;4925565;29;20503;-87
2022/05/15 09:48:12;;;;;;;7.50;2.70;;;23.90;92.30;;;;;;4903041;29;20447;-88
2022/05/15 09:50:38;;;;;;;4.53;2.00;;;24.00;93.10;;;;;;4920063;29;20490;-87
2022/05/15 09:53:12;;;;;;;3.10;2.40;;;24.10;91.40;;;;;;4919494;29;20880;-87
2022/05/15 09:55:38;;;;;;;2.10;1.87;;;24.20;91.00;;;;;;4890281;29;20192;-88
2022/05/15 09:58:18;;;;;;;3.67;2.47;;;24.20;91.20;;;;;;4911286;29;21163;-86
2022/05/15 10:00:43;;;;;;;2.50;2.30;;;24.00;90.70;;;;;;4908173;29;21065;-86
2022/05/15 10:03:22;;;;;;;3.20;2.40;;;24.00;90.10;;;;;;4906100;29;20451;-85
2022/05/15 10:05:58;;;;;;;2.70;1.83;;;24.20;89.80;;;;;;4908399;29;20650;-87
2022/05/15 10:08:27;;;;;;;2.43;2.33;;;24.10;89.50;;;;;;4905591;29;20558;-86
2022/05/15 10:11:06;;;;;;;2.77;2.57;;;24.20;90.10;;;;;;4884717;29;20451;-86
2022/05/15 10:13:36;;;;;;;2.77;2.57;;;24.40;85.60;;;;;;4888614;29;21201;-86
2022/05/15 10:16:12;;;;;;;2.10;1.90;;;24.60;91.00;;;;;;4900226;29;20459;-86
2022/05/15 10:18:53;;;;;;;2.80;2.60;;;24.70;90.90;;;;;;4907812;29;20454;-90
2022/05/15 10:21:44;;;;;;;3.63;2.20;;;24.50;82.60;;;;;;4909122;29;20553;-91
2022/05/15 10:24:38;;;;;;;6.27;2.73;;;24.60;90.60;;;;;;4902979;29;20457;-90
2022/05/15 10:27:27;;;;;;;3.03;2.33;;;24.70;85.50;;;;;;4910011;29;20458;-88
2022/05/15 10:30:19;;;;;;;4.40;2.13;;;24.50;88.90;;;;;;4901684;29;20892;-95
2022/05/15 10:32:50;;;;;;;3.23;2.40;;;24.60;88.90;;;;;;4906103;29;20466;-93
2022/05/15 10:35:21;;;;;;;3.90;2.40;;;24.80;89.30;;;;;;4893755;29;21490;-93
2022/05/15 10:38:21;;;;;;;2.90;2.10;;;25.00;87.00;;;;;;4913122;29;20505;-92
2022/05/15 10:40:54;;;;;;;1.90;1.80;;;25.40;90.10;;;;;;4916251;29;20513;-91
2022/05/15 10:43:50;;;;;;;2.60;2.40;;;25.60;83.20;;;;;;4905992;29;20447;-92
2022/05/15 10:46:22;;;;;;;2.97;2.63;;;25.40;81.60;;;;;;4913624;29;20451;-92
2022/05/15 10:48:53;;;;;;;4.30;2.63;;;25.50;85.20;;;;;;4906950;29;20531;-93
2022/05/15 10:51:21;;;;;;;3.13;2.57;;;25.50;82.70;;;;;;4916854;29;20817;-90
2022/05/15 10:57:29;;;;;;;2.43;2.27;;;25.70;83.40;;;;;;4909727;29;23025;-90
2022/05/15 11:00:07;;;;;;;3.60;2.60;;;25.80;81.50;;;;;;4913363;29;20538;-92
2022/05/15 11:03:01;;;;;;;3.33;2.30;;;25.80;80.30;;;;;;4912415;29;20474;-92
2022/05/15 11:05:49;;;;;;;2.60;2.40;;;26.30;80.80;;;;;;4908205;29;21053;-92
2022/05/15 11:08:26;;;;;;;5.10;2.80;;;26.10;77.70;;;;;;4911470;29;20452;-92
2022/05/15 11:11:24;;;;;;;3.60;2.70;;;26.00;87.20;;;;;;4902748;29;21319;-92
2022/05/15 11:13:56;;;;;;;3.07;2.50;;;26.20;80.20;;;;;;4914663;29;20487;-92
2022/05/15 11:16:25;;;;;;;5.23;2.30;;;26.20;85.80;;;;;;4909231;29;21126;-94
2022/05/15 11:18:56;;;;;;;2.30;2.10;;;26.10;80.50;;;;;;4910026;29;20462;-94
2022/05/15 11:21:41;;;;;;;5.30;2.30;;;26.10;83.40;;;;;;4899476;29;20439;-90
2022/05/15 11:24:16;;;;;;;3.47;2.50;;;25.80;82.20;;;;;;4915728;29;20459;-96
2022/05/15 11:26:48;;;;;;;2.40;2.30;;;25.90;81.10;;;;;;4915564;29;21706;-93
2022/05/15 11:29:17;;;;;;;4.03;2.27;;;26.00;81.30;;;;;;4914666;29;20462;-95
2022/05/15 11:31:48;;;;;;;3.00;2.80;;;26.00;80.40;;;;;;4912734;29;20451;-93
2022/05/15 11:34:14;;;;;;;3.20;2.43;;;26.10;78.80;;;;;;4907667;29;20534;-94
2022/05/15 11:36:45;;;;;;;2.20;2.10;;;26.40;76.60;;;;;;4914903;29;20491;-94
2022/05/15 11:39:14;;;;;;;7.23;2.43;;;26.50;77.70;;;;;;4915385;29;20256;-96
2022/05/15 11:41:42;;;;;;;2.60;2.40;;;26.50;78.40;;;;;;4913090;29;20451;-96
2022/05/15 11:44:14;;;;;;;2.87;2.20;;;26.40;80.00;;;;;;4921083;29;20462;-94
2022/05/15 11:46:45;;;;;;;3.50;2.70;;;26.20;78.10;;;;;;4913805;29;20451;-93
2022/05/15 11:49:36;;;;;;;8.83;2.33;;;26.30;79.00;;;;;;4901313;29;20547;-95
2022/05/15 11:52:08;;;;;;;2.30;2.13;;;26.60;81.30;;;;;;4921795;29;21086;-94
2022/05/15 11:54:39;;;;;;;2.30;2.10;;;26.60;80.60;;;;;;4927857;29;20534;-93
2022/05/15 11:57:31;;;;;;;2.63;2.40;;;26.60;79.00;;;;;;4923021;29;20484;-94
2022/05/15 12:00:03;;;;;;;4.33;2.40;;;26.90;82.20;;;;;;4908764;29;20443;-93
2022/05/15 12:02:29;;;;;;;3.63;2.40;;;27.20;69.60;;;;;;4929849;29;20467;-93
2022/05/15 12:05:22;;;;;;;3.30;2.47;;;26.90;74.40;;;;;;4909833;29;20435;-94
2022/05/15 12:07:58;;;;;;;2.53;2.33;;;27.00;69.40;;;;;;4929146;29;20475;-92
2022/05/15 12:10:35;;;;;;;2.20;2.00;;;27.20;78.00;;;;;;4899687;29;20435;-94
2022/05/15 12:13:30;;;;;;;4.10;2.30;;;27.20;67.40;;;;;;4920946;29;20451;-92
2022/05/15 12:16:24;;;;;;;2.60;2.40;;;27.40;70.60;;;;;;4920898;29;20439;-92
2022/05/15 12:19:13;;;;;;;4.20;2.70;;;27.60;75.60;;;;;;4919319;29;20863;-93
2022/05/15 12:22:01;;;;;;;2.90;2.53;;;27.20;70.00;;;;;;4927386;29;20439;-94
2022/05/15 12:24:32;;;;;;;2.70;2.50;;;27.40;71.10;;;;;;4938483;29;20454;-95
2022/05/15 12:27:18;;;;;;;3.17;2.97;;;27.70;73.50;;;;;;4921876;29;20819;-93
2022/05/15 12:29:56;;;;;;;3.77;2.10;;;27.40;68.90;;;;;;4909830;29;20450;-91
2022/05/15 12:32:29;;;;;;;2.40;2.07;;;27.50;74.80;;;;;;4925450;29;20681;-96
2022/05/15 12:34:56;;;;;;;6.60;2.53;;;27.70;67.70;;;;;;4937088;29;20440;-91
2022/05/15 12:37:34;;;;;;;4.33;3.70;;;27.50;75.30;;;;;;4908158;29;20558;-94
2022/05/15 12:40:13;;;;;;;3.50;3.20;;;27.50;73.20;;;;;;4933596;29;20438;-96
2022/05/15 12:42:49;;;;;;;3.27;2.90;;;27.60;70.30;;;;;;4931611;29;20483;-91
2022/05/15 12:45:24;;;;;;;2.13;1.93;;;27.40;70.90;;;;;;4929123;29;20458;-90
2022/05/15 12:48:10;;;;;;;3.23;2.47;;;27.30;70.20;;;;;;4930583;29;20945;-95
2022/05/15 12:51:02;;;;;;;4.40;2.40;;;27.60;73.00;;;;;;4931408;29;21124;-93
2022/05/15 12:53:33;;;;;;;2.57;2.37;;;27.40;75.00;;;;;;4927119;29;20851;-91
2022/05/15 12:56:15;;;;;;;2.90;2.63;;;27.50;72.30;;;;;;4917667;29;20443;-89
2022/05/15 12:58:51;;;;;;;2.50;2.30;;;27.50;70.20;;;;;;4926193;29;20514;-90
2022/05/15 13:01:19;;;;;;;2.17;2.07;;;27.60;76.00;;;;;;4917528;29;20435;-91
2022/05/15 13:03:50;;;;;;;2.90;2.10;;;27.70;75.50;;;;;;4900900;29;20442;-90
2022/05/15 13:07:05;;;;;;;3.87;2.40;;;27.80;69.20;;;;;;4923200;29;20575;-91
2022/05/15 13:09:58;;;;;;;4.30;2.53;;;27.70;70.80;;;;;;4909397;29;20448;-92
2022/05/15 13:12:24;;;;;;;2.70;2.50;;;27.80;71.00;;;;;;4926339;29;20450;-91
2022/05/15 13:15:28;;;;;;;2.93;2.30;;;28.00;70.60;;;;;;4928854;28;20443;-91
2022/05/15 13:18:27;;;;;;;4.10;2.40;;;28.20;71.20;;;;;;4925856;29;20483;-91
2022/05/15 13:21:29;;;;;;;2.70;2.50;;;28.20;71.40;;;;;;4911614;29;20487;-92
2022/05/15 13:23:55;;;;;;;2.30;2.10;;;28.40;67.10;;;;;;4927391;29;20932;-92
2022/05/15 13:26:37;;;;;;;3.20;2.40;;;28.90;68.90;;;;;;4911836;29;20443;-91
2022/05/15 13:29:05;;;;;;;4.80;2.87;;;29.00;66.50;;;;;;4922935;29;20458;-93
2022/05/15 13:31:33;;;;;;;3.67;2.57;;;28.40;67.50;;;;;;4911530;29;20549;-93
2022/05/15 13:34:01;;;;;;;2.50;2.20;;;28.20;66.20;;;;;;4930650;29;20433;-92
2022/05/15 13:36:42;;;;;;;3.23;2.23;;;28.50;68.80;;;;;;4915041;29;20543;-91
2022/05/15 13:44:38;;;;;;;2.10;1.90;;;28.40;64.50;;;;;;4912723;29;20461;-86
2022/05/15 13:47:14;;;;;;;2.90;2.70;;;28.50;68.50;;;;;;4908052;29;20517;-87
2022/05/15 13:49:43;;;;;;;2.17;2.07;;;28.80;66.10;;;;;;4892851;29;20451;-86
2022/05/15 13:52:20;;;;;;;2.60;2.40;;;29.40;58.60;;;;;;4882960;29;20654;-86